sensor_id;sensor_type;location;lat;lon;timestamp;temperature;humidity
32201;DHT22;18701;45.588;5.288;2023-06-04T00:02:24;18.50;99.90
32201;DHT22;18701;45.588;5.288;2023-06-04T00:04:49;18.30;99.90
32201;DHT22;18701;45.588;5.288;2023-06-04T00:07:15;18.40;99.90
32201;DHT22;18701;45.588;5.288;2023-06-04T00:09:41;18.40;99.90
32201;DHT22;18701;45.588;5.288;2023-06-04T00:12:07;18.30;99.90
32201;DHT22;18701;45.588;5.288;2023-06-04T00:14:32;18.40;99.90
32201;DHT22;18701;45.588;5.288;2023-06-04T00:16:58;18.60;99.90
32201;DHT22;18701;45.588;5.288;2023-06-04T00:19:24;18.50;99.90
32201;DHT22;18701;45.588;5.288;2023-06-04T00:21:49;18.50;99.90
32201;DHT22;18701;45.588;5.288;2023-06-04T00:24:16;18.50;99.90
32201;DHT22;18701;45.588;5.288;2023-06-04T00:26:41;18.40;99.90
32201;DHT22;18701;45.588;5.288;2023-06-04T00:29:07;18.50;99.90
32201;DHT22;18701;45.588;5.288;2023-06-04T00:31:33;18.40;99.90
32201;DHT22;18701;45.588;5.288;2023-06-04T00:33:58;18.50;99.90
32201;DHT22;18701;45.588;5.288;2023-06-04T00:36:24;18.40;99.90
32201;DHT22;18701;45.588;5.288;2023-06-04T00:38:49;18.40;99.90
32201;DHT22;18701;45.588;5.288;2023-06-04T00:41:15;18.30;99.90
32201;DHT22;18701;45.588;5.288;2023-06-04T00:43:41;18.30;99.90
32201;DHT22;18701;45.588;5.288;2023-06-04T00:46:12;18.20;99.90
32201;DHT22;18701;45.588;5.288;2023-06-04T00:48:44;18.30;99.90
32201;DHT22;18701;45.588;5.288;2023-06-04T00:51:11;18.20;99.90
32201;DHT22;18701;45.588;5.288;2023-06-04T00:53:37;18.20;99.90
32201;DHT22;18701;45.588;5.288;2023-06-04T00:56:03;18.10;99.90
32201;DHT22;18701;45.588;5.288;2023-06-04T00:58:33;18.20;99.90
32201;DHT22;18701;45.588;5.288;2023-06-04T01:01:04;18.30;99.90
32201;DHT22;18701;45.588;5.288;2023-06-04T01:03:32;18.30;99.90
32201;DHT22;18701;45.588;5.288;2023-06-04T01:08:36;18.20;99.90
32201;DHT22;18701;45.588;5.288;2023-06-04T01:11:02;18.10;99.90
32201;DHT22;18701;45.588;5.288;2023-06-04T01:13:27;18.00;99.90
32201;DHT22;18701;45.588;5.288;2023-06-04T01:15:53;17.70;99.90
32201;DHT22;18701;45.588;5.288;2023-06-04T01:18:23;17.50;99.90
32201;DHT22;18701;45.588;5.288;2023-06-04T01:21:14;17.60;99.90
32201;DHT22;18701;45.588;5.288;2023-06-04T01:23:49;17.60;99.90
32201;DHT22;18701;45.588;5.288;2023-06-04T01:26:25;17.80;99.90
32201;DHT22;18701;45.588;5.288;2023-06-04T01:28:52;17.80;99.90
32201;DHT22;18701;45.588;5.288;2023-06-04T01:31:19;18.00;99.90
32201;DHT22;18701;45.588;5.288;2023-06-04T01:33:52;17.90;99.90
32201;DHT22;18701;45.588;5.288;2023-06-04T01:36:19;17.90;99.90
32201;DHT22;18701;45.588;5.288;2023-06-04T01:38:45;18.00;99.90
32201;DHT22;18701;45.588;5.288;2023-06-04T01:41:11;18.10;99.90
32201;DHT22;18701;45.588;5.288;2023-06-04T01:43:36;18.10;99.90
32201;DHT22;18701;45.588;5.288;2023-06-04T01:46:02;18.00;99.90
32201;DHT22;18701;45.588;5.288;2023-06-04T01:48:29;18.00;99.90
32201;DHT22;18701;45.588;5.288;2023-06-04T01:50:55;18.10;99.90
32201;DHT22;18701;45.588;5.288;2023-06-04T01:53:20;18.00;99.90
32201;DHT22;18701;45.588;5.288;2023-06-04T01:55:46;18.00;99.90
32201;DHT22;18701;45.588;5.288;2023-06-04T01:58:15;18.00;99.90
32201;DHT22;18701;45.588;5.288;2023-06-04T02:00:43;18.10;99.90
32201;DHT22;18701;45.588;5.288;2023-06-04T02:03:09;18.10;99.90
32201;DHT22;18701;45.588;5.288;2023-06-04T02:05:36;18.20;99.90
32201;DHT22;18701;45.588;5.288;2023-06-04T02:08:02;18.10;99.90
32201;DHT22;18701;45.588;5.288;2023-06-04T02:10:30;18.20;99.90
32201;DHT22;18701;45.588;5.288;2023-06-04T02:13:00;18.10;99.90
32201;DHT22;18701;45.588;5.288;2023-06-04T02:15:28;18.00;99.90
32201;DHT22;18701;45.588;5.288;2023-06-04T02:17:57;18.00;99.90
32201;DHT22;18701;45.588;5.288;2023-06-04T02:20:28;18.00;99.90
32201;DHT22;18701;45.588;5.288;2023-06-04T02:22:57;18.10;99.90
32201;DHT22;18701;45.588;5.288;2023-06-04T02:25:23;18.20;99.90
32201;DHT22;18701;45.588;5.288;2023-06-04T02:27:49;18.10;99.90
32201;DHT22;18701;45.588;5.288;2023-06-04T02:30:15;18.20;99.90
32201;DHT22;18701;45.588;5.288;2023-06-04T02:32:44;18.10;99.90
32201;DHT22;18701;45.588;5.288;2023-06-04T02:35:10;18.10;99.90
32201;DHT22;18701;45.588;5.288;2023-06-04T02:37:36;18.10;99.90
32201;DHT22;18701;45.588;5.288;2023-06-04T02:40:02;18.00;99.90
32201;DHT22;18701;45.588;5.288;2023-06-04T02:42:28;18.00;99.90
32201;DHT22;18701;45.588;5.288;2023-06-04T02:44:53;18.00;99.90
32201;DHT22;18701;45.588;5.288;2023-06-04T02:47:19;18.10;99.90
32201;DHT22;18701;45.588;5.288;2023-06-04T02:49:45;18.10;99.90
32201;DHT22;18701;45.588;5.288;2023-06-04T02:52:11;18.10;99.90
32201;DHT22;18701;45.588;5.288;2023-06-04T02:54:37;18.10;99.90
32201;DHT22;18701;45.588;5.288;2023-06-04T02:57:03;18.10;99.90
32201;DHT22;18701;45.588;5.288;2023-06-04T02:59:29;18.00;99.90
32201;DHT22;18701;45.588;5.288;2023-06-04T03:01:55;17.90;99.90
32201;DHT22;18701;45.588;5.288;2023-06-04T03:04:21;17.90;99.90
32201;DHT22;18701;45.588;5.288;2023-06-04T03:06:46;18.00;99.90
32201;DHT22;18701;45.588;5.288;2023-06-04T03:09:13;17.80;99.90
32201;DHT22;18701;45.588;5.288;2023-06-04T03:11:38;17.90;99.90
32201;DHT22;18701;45.588;5.288;2023-06-04T03:14:04;17.90;99.90
32201;DHT22;18701;45.588;5.288;2023-06-04T03:16:30;18.00;99.90
32201;DHT22;18701;45.588;5.288;2023-06-04T03:18:56;18.00;99.90
32201;DHT22;18701;45.588;5.288;2023-06-04T03:21:22;17.90;99.90
32201;DHT22;18701;45.588;5.288;2023-06-04T03:23:47;17.90;99.90
32201;DHT22;18701;45.588;5.288;2023-06-04T03:26:13;17.90;99.90
32201;DHT22;18701;45.588;5.288;2023-06-04T03:28:39;17.90;99.90
32201;DHT22;18701;45.588;5.288;2023-06-04T03:31:05;17.80;99.90
32201;DHT22;18701;45.588;5.288;2023-06-04T03:33:31;17.80;99.90
32201;DHT22;18701;45.588;5.288;2023-06-04T03:35:56;17.70;99.90
32201;DHT22;18701;45.588;5.288;2023-06-04T03:38:26;17.70;99.90
32201;DHT22;18701;45.588;5.288;2023-06-04T03:40:51;17.70;99.90
32201;DHT22;18701;45.588;5.288;2023-06-04T03:43:21;17.70;99.90
32201;DHT22;18701;45.588;5.288;2023-06-04T03:45:47;17.50;99.90
32201;DHT22;18701;45.588;5.288;2023-06-04T03:48:12;17.50;99.90
32201;DHT22;18701;45.588;5.288;2023-06-04T03:50:38;17.40;99.90
32201;DHT22;18701;45.588;5.288;2023-06-04T03:53:04;17.60;99.90
32201;DHT22;18701;45.588;5.288;2023-06-04T03:55:33;17.40;99.90
32201;DHT22;18701;45.588;5.288;2023-06-04T03:57:59;17.40;99.90
32201;DHT22;18701;45.588;5.288;2023-06-04T04:00:24;17.30;99.90
32201;DHT22;18701;45.588;5.288;2023-06-04T04:02:50;17.20;99.90
32201;DHT22;18701;45.588;5.288;2023-06-04T04:05:16;17.30;99.90
32201;DHT22;18701;45.588;5.288;2023-06-04T04:07:42;17.30;99.90
32201;DHT22;18701;45.588;5.288;2023-06-04T04:10:08;17.20;99.90
32201;DHT22;18701;45.588;5.288;2023-06-04T04:12:33;17.30;99.90
32201;DHT22;18701;45.588;5.288;2023-06-04T04:14:59;17.30;99.90
32201;DHT22;18701;45.588;5.288;2023-06-04T04:17:25;17.30;99.90
32201;DHT22;18701;45.588;5.288;2023-06-04T04:19:51;17.40;99.90
32201;DHT22;18701;45.588;5.288;2023-06-04T04:22:17;17.50;99.90
32201;DHT22;18701;45.588;5.288;2023-06-04T04:24:43;17.40;99.90
32201;DHT22;18701;45.588;5.288;2023-06-04T04:27:09;17.40;99.90
32201;DHT22;18701;45.588;5.288;2023-06-04T04:29:38;17.50;99.90
32201;DHT22;18701;45.588;5.288;2023-06-04T04:32:04;17.40;99.90
32201;DHT22;18701;45.588;5.288;2023-06-04T04:34:37;17.60;99.90
32201;DHT22;18701;45.588;5.288;2023-06-04T04:37:04;17.50;99.90
32201;DHT22;18701;45.588;5.288;2023-06-04T04:39:34;17.60;99.90
32201;DHT22;18701;45.588;5.288;2023-06-04T04:42:00;17.50;99.90
32201;DHT22;18701;45.588;5.288;2023-06-04T04:44:25;17.60;99.90
32201;DHT22;18701;45.588;5.288;2023-06-04T04:46:51;17.60;99.90
32201;DHT22;18701;45.588;5.288;2023-06-04T04:49:17;17.50;99.90
32201;DHT22;18701;45.588;5.288;2023-06-04T04:51:42;17.60;99.90
32201;DHT22;18701;45.588;5.288;2023-06-04T04:54:08;17.60;99.90
32201;DHT22;18701;45.588;5.288;2023-06-04T04:56:34;17.70;99.90
32201;DHT22;18701;45.588;5.288;2023-06-04T04:59:00;17.70;99.90
32201;DHT22;18701;45.588;5.288;2023-06-04T05:01:26;17.80;99.90
32201;DHT22;18701;45.588;5.288;2023-06-04T05:03:52;17.80;99.90
32201;DHT22;18701;45.588;5.288;2023-06-04T05:06:18;17.80;99.90
32201;DHT22;18701;45.588;5.288;2023-06-04T05:08:44;17.80;99.90
32201;DHT22;18701;45.588;5.288;2023-06-04T05:11:09;17.90;99.90
32201;DHT22;18701;45.588;5.288;2023-06-04T05:13:35;17.80;99.90
32201;DHT22;18701;45.588;5.288;2023-06-04T05:16:02;17.90;99.90
32201;DHT22;18701;45.588;5.288;2023-06-04T05:18:32;17.80;99.90
32201;DHT22;18701;45.588;5.288;2023-06-04T05:20:59;17.80;99.90
32201;DHT22;18701;45.588;5.288;2023-06-04T05:23:28;17.70;99.90
32201;DHT22;18701;45.588;5.288;2023-06-04T05:25:55;17.70;99.90
32201;DHT22;18701;45.588;5.288;2023-06-04T05:28:21;17.70;99.90
32201;DHT22;18701;45.588;5.288;2023-06-04T05:30:53;17.80;99.90
32201;DHT22;18701;45.588;5.288;2023-06-04T05:33:25;17.80;99.90
32201;DHT22;18701;45.588;5.288;2023-06-04T05:35:51;17.80;99.90
32201;DHT22;18701;45.588;5.288;2023-06-04T05:38:23;17.60;99.90
32201;DHT22;18701;45.588;5.288;2023-06-04T05:40:51;17.70;99.90
32201;DHT22;18701;45.588;5.288;2023-06-04T05:43:21;17.80;99.90
32201;DHT22;18701;45.588;5.288;2023-06-04T05:45:46;17.50;99.90
32201;DHT22;18701;45.588;5.288;2023-06-04T05:48:12;17.70;99.90
32201;DHT22;18701;45.588;5.288;2023-06-04T05:50:39;18.00;99.90
32201;DHT22;18701;45.588;5.288;2023-06-04T05:53:05;18.00;99.90
32201;DHT22;18701;45.588;5.288;2023-06-04T05:55:30;17.90;99.90
32201;DHT22;18701;45.588;5.288;2023-06-04T05:57:56;18.00;99.90
32201;DHT22;18701;45.588;5.288;2023-06-04T06:00:22;18.10;99.90
32201;DHT22;18701;45.588;5.288;2023-06-04T06:02:49;18.10;99.90
32201;DHT22;18701;45.588;5.288;2023-06-04T06:05:15;18.20;99.90
32201;DHT22;18701;45.588;5.288;2023-06-04T06:07:41;18.20;99.90
32201;DHT22;18701;45.588;5.288;2023-06-04T06:10:07;18.20;99.90
32201;DHT22;18701;45.588;5.288;2023-06-04T06:12:33;18.10;99.90
32201;DHT22;18701;45.588;5.288;2023-06-04T06:14:59;18.10;99.90
32201;DHT22;18701;45.588;5.288;2023-06-04T06:17:24;18.10;99.90
32201;DHT22;18701;45.588;5.288;2023-06-04T06:19:54;18.30;99.90
32201;DHT22;18701;45.588;5.288;2023-06-04T06:22:21;18.40;99.90
32201;DHT22;18701;45.588;5.288;2023-06-04T06:24:47;18.60;99.90
32201;DHT22;18701;45.588;5.288;2023-06-04T06:27:16;18.60;99.90
32201;DHT22;18701;45.588;5.288;2023-06-04T06:29:43;18.80;99.90
32201;DHT22;18701;45.588;5.288;2023-06-04T06:32:09;18.90;99.90
32201;DHT22;18701;45.588;5.288;2023-06-04T06:34:35;18.90;99.90
32201;DHT22;18701;45.588;5.288;2023-06-04T06:37:01;18.90;99.90
32201;DHT22;18701;45.588;5.288;2023-06-04T06:39:26;19.00;99.90
32201;DHT22;18701;45.588;5.288;2023-06-04T06:41:52;19.10;99.90
32201;DHT22;18701;45.588;5.288;2023-06-04T06:44:17;19.00;99.90
32201;DHT22;18701;45.588;5.288;2023-06-04T06:46:43;18.90;99.90
32201;DHT22;18701;45.588;5.288;2023-06-04T06:49:09;18.90;99.90
32201;DHT22;18701;45.588;5.288;2023-06-04T06:51:35;19.00;99.90
32201;DHT22;18701;45.588;5.288;2023-06-04T06:54:00;19.00;99.90
32201;DHT22;18701;45.588;5.288;2023-06-04T06:56:26;19.10;99.90
32201;DHT22;18701;45.588;5.288;2023-06-04T06:58:51;19.10;99.90
32201;DHT22;18701;45.588;5.288;2023-06-04T07:01:17;19.20;99.90
32201;DHT22;18701;45.588;5.288;2023-06-04T07:03:43;19.20;99.90
32201;DHT22;18701;45.588;5.288;2023-06-04T07:06:09;19.20;99.90
32201;DHT22;18701;45.588;5.288;2023-06-04T07:08:35;19.20;99.90
32201;DHT22;18701;45.588;5.288;2023-06-04T07:11:02;19.30;99.90
32201;DHT22;18701;45.588;5.288;2023-06-04T07:13:28;19.30;99.90
32201;DHT22;18701;45.588;5.288;2023-06-04T07:15:57;19.30;99.90
32201;DHT22;18701;45.588;5.288;2023-06-04T07:18:23;19.40;99.90
32201;DHT22;18701;45.588;5.288;2023-06-04T07:20:48;19.40;99.90
32201;DHT22;18701;45.588;5.288;2023-06-04T07:23:14;19.50;99.90
32201;DHT22;18701;45.588;5.288;2023-06-04T07:25:40;19.60;99.90
32201;DHT22;18701;45.588;5.288;2023-06-04T07:28:06;19.80;99.90
32201;DHT22;18701;45.588;5.288;2023-06-04T07:30:32;19.80;99.90
32201;DHT22;18701;45.588;5.288;2023-06-04T07:32:57;20.00;99.90
32201;DHT22;18701;45.588;5.288;2023-06-04T07:35:23;20.00;99.90
32201;DHT22;18701;45.588;5.288;2023-06-04T07:37:49;20.10;99.90
32201;DHT22;18701;45.588;5.288;2023-06-04T07:40:16;20.30;99.90
32201;DHT22;18701;45.588;5.288;2023-06-04T07:42:42;20.40;99.90
32201;DHT22;18701;45.588;5.288;2023-06-04T07:45:09;20.50;99.90
32201;DHT22;18701;45.588;5.288;2023-06-04T07:47:37;20.50;99.90
32201;DHT22;18701;45.588;5.288;2023-06-04T07:50:04;20.60;99.90
32201;DHT22;18701;45.588;5.288;2023-06-04T07:52:30;20.70;99.90
32201;DHT22;18701;45.588;5.288;2023-06-04T07:54:56;20.80;99.90
32201;DHT22;18701;45.588;5.288;2023-06-04T07:57:22;21.00;99.90
32201;DHT22;18701;45.588;5.288;2023-06-04T07:59:48;21.10;99.90
32201;DHT22;18701;45.588;5.288;2023-06-04T08:02:13;21.10;99.90
32201;DHT22;18701;45.588;5.288;2023-06-04T08:04:40;21.00;99.90
32201;DHT22;18701;45.588;5.288;2023-06-04T08:07:05;20.90;99.90
32201;DHT22;18701;45.588;5.288;2023-06-04T08:09:31;21.10;99.90
32201;DHT22;18701;45.588;5.288;2023-06-04T08:11:57;21.30;99.90
32201;DHT22;18701;45.588;5.288;2023-06-04T08:14:22;21.40;99.90
32201;DHT22;18701;45.588;5.288;2023-06-04T08:16:49;21.50;99.90
32201;DHT22;18701;45.588;5.288;2023-06-04T08:19:15;21.70;99.90
32201;DHT22;18701;45.588;5.288;2023-06-04T08:21:41;21.70;99.90
32201;DHT22;18701;45.588;5.288;2023-06-04T08:24:08;21.60;99.90
32201;DHT22;18701;45.588;5.288;2023-06-04T08:26:34;21.70;99.90
32201;DHT22;18701;45.588;5.288;2023-06-04T08:29:02;21.80;99.90
32201;DHT22;18701;45.588;5.288;2023-06-04T08:31:29;21.90;99.90
32201;DHT22;18701;45.588;5.288;2023-06-04T08:33:55;22.20;99.90
32201;DHT22;18701;45.588;5.288;2023-06-04T08:36:21;22.20;99.90
32201;DHT22;18701;45.588;5.288;2023-06-04T08:38:46;22.10;99.90
32201;DHT22;18701;45.588;5.288;2023-06-04T08:41:20;22.30;99.90
32201;DHT22;18701;45.588;5.288;2023-06-04T08:43:50;22.00;99.90
32201;DHT22;18701;45.588;5.288;2023-06-04T08:46:17;22.10;99.90
32201;DHT22;18701;45.588;5.288;2023-06-04T08:48:44;22.10;99.90
32201;DHT22;18701;45.588;5.288;2023-06-04T08:51:11;22.10;99.90
32201;DHT22;18701;45.588;5.288;2023-06-04T08:53:37;22.10;99.90
32201;DHT22;18701;45.588;5.288;2023-06-04T08:56:03;22.10;99.90
32201;DHT22;18701;45.588;5.288;2023-06-04T08:58:31;22.40;99.90
32201;DHT22;18701;45.588;5.288;2023-06-04T09:01:00;22.20;99.90
32201;DHT22;18701;45.588;5.288;2023-06-04T09:03:26;22.30;99.90
32201;DHT22;18701;45.588;5.288;2023-06-04T09:05:52;22.40;99.90
32201;DHT22;18701;45.588;5.288;2023-06-04T09:08:19;22.50;99.90
32201;DHT22;18701;45.588;5.288;2023-06-04T09:10:48;22.40;99.90
32201;DHT22;18701;45.588;5.288;2023-06-04T09:13:18;22.30;99.90
32201;DHT22;18701;45.588;5.288;2023-06-04T09:15:44;22.30;99.90
32201;DHT22;18701;45.588;5.288;2023-06-04T09:18:11;22.60;99.90
32201;DHT22;18701;45.588;5.288;2023-06-04T09:20:37;22.80;99.90
32201;DHT22;18701;45.588;5.288;2023-06-04T09:23:13;22.90;99.90
32201;DHT22;18701;45.588;5.288;2023-06-04T09:25:43;23.20;99.90
32201;DHT22;18701;45.588;5.288;2023-06-04T09:28:09;23.20;99.90
32201;DHT22;18701;45.588;5.288;2023-06-04T09:30:35;23.40;99.90
32201;DHT22;18701;45.588;5.288;2023-06-04T09:33:09;23.80;99.90
32201;DHT22;18701;45.588;5.288;2023-06-04T09:35:37;23.60;99.90
32201;DHT22;18701;45.588;5.288;2023-06-04T09:38:05;23.40;99.90
32201;DHT22;18701;45.588;5.288;2023-06-04T09:40:37;23.40;99.90
32201;DHT22;18701;45.588;5.288;2023-06-04T09:43:03;23.80;99.90
32201;DHT22;18701;45.588;5.288;2023-06-04T09:45:30;23.60;99.90
32201;DHT22;18701;45.588;5.288;2023-06-04T09:47:57;23.40;99.90
32201;DHT22;18701;45.588;5.288;2023-06-04T09:50:33;23.40;99.90
32201;DHT22;18701;45.588;5.288;2023-06-04T09:53:00;23.30;99.90
32201;DHT22;18701;45.588;5.288;2023-06-04T09:55:26;23.20;99.90
32201;DHT22;18701;45.588;5.288;2023-06-04T09:57:52;23.30;99.90
32201;DHT22;18701;45.588;5.288;2023-06-04T10:00:23;23.70;99.90
32201;DHT22;18701;45.588;5.288;2023-06-04T10:02:50;23.80;99.90
32201;DHT22;18701;45.588;5.288;2023-06-04T10:05:16;23.80;99.90
32201;DHT22;18701;45.588;5.288;2023-06-04T10:07:45;24.10;99.90
32201;DHT22;18701;45.588;5.288;2023-06-04T10:10:23;24.00;99.90
32201;DHT22;18701;45.588;5.288;2023-06-04T10:12:59;24.20;99.90
32201;DHT22;18701;45.588;5.288;2023-06-04T10:15:26;24.00;99.90
32201;DHT22;18701;45.588;5.288;2023-06-04T10:17:54;23.90;99.90
32201;DHT22;18701;45.588;5.288;2023-06-04T10:20:21;24.10;99.90
32201;DHT22;18701;45.588;5.288;2023-06-04T10:22:48;23.90;99.90
32201;DHT22;18701;45.588;5.288;2023-06-04T10:25:15;23.70;99.90
32201;DHT22;18701;45.588;5.288;2023-06-04T10:27:41;23.90;99.90
32201;DHT22;18701;45.588;5.288;2023-06-04T10:30:07;23.80;99.90
32201;DHT22;18701;45.588;5.288;2023-06-04T10:32:34;23.80;99.90
32201;DHT22;18701;45.588;5.288;2023-06-04T10:35:04;23.70;99.90
32201;DHT22;18701;45.588;5.288;2023-06-04T10:37:30;23.70;99.90
32201;DHT22;18701;45.588;5.288;2023-06-04T10:39:57;23.60;99.90
32201;DHT22;18701;45.588;5.288;2023-06-04T10:42:23;23.40;99.90
32201;DHT22;18701;45.588;5.288;2023-06-04T10:44:53;23.50;99.90
32201;DHT22;18701;45.588;5.288;2023-06-04T10:47:23;23.50;99.90
32201;DHT22;18701;45.588;5.288;2023-06-04T10:49:50;23.80;99.90
32201;DHT22;18701;45.588;5.288;2023-06-04T10:52:17;24.10;99.90
32201;DHT22;18701;45.588;5.288;2023-06-04T10:54:44;24.40;99.90
32201;DHT22;18701;45.588;5.288;2023-06-04T10:57:17;24.70;99.90
32201;DHT22;18701;45.588;5.288;2023-06-04T10:59:56;24.90;99.90
32201;DHT22;18701;45.588;5.288;2023-06-04T11:02:22;25.20;99.90
32201;DHT22;18701;45.588;5.288;2023-06-04T11:04:59;25.20;99.90
32201;DHT22;18701;45.588;5.288;2023-06-04T11:07:27;24.80;99.90
32201;DHT22;18701;45.588;5.288;2023-06-04T11:09:53;25.10;99.90
32201;DHT22;18701;45.588;5.288;2023-06-04T11:12:19;25.30;99.90
32201;DHT22;18701;45.588;5.288;2023-06-04T11:14:55;25.40;99.90
32201;DHT22;18701;45.588;5.288;2023-06-04T11:17:21;25.10;99.90
32201;DHT22;18701;45.588;5.288;2023-06-04T11:19:46;25.10;99.90
32201;DHT22;18701;45.588;5.288;2023-06-04T11:22:12;25.20;99.90
32201;DHT22;18701;45.588;5.288;2023-06-04T11:24:38;25.80;99.90
32201;DHT22;18701;45.588;5.288;2023-06-04T11:27:03;26.00;99.90
32201;DHT22;18701;45.588;5.288;2023-06-04T11:29:29;26.20;99.90
32201;DHT22;18701;45.588;5.288;2023-06-04T11:31:55;26.40;99.90
32201;DHT22;18701;45.588;5.288;2023-06-04T11:34:30;26.50;99.90
32201;DHT22;18701;45.588;5.288;2023-06-04T11:37:08;26.20;99.90
32201;DHT22;18701;45.588;5.288;2023-06-04T11:39:35;25.90;99.90
32201;DHT22;18701;45.588;5.288;2023-06-04T11:42:05;26.10;99.90
32201;DHT22;18701;45.588;5.288;2023-06-04T11:44:31;25.70;99.90
32201;DHT22;18701;45.588;5.288;2023-06-04T11:46:57;25.20;99.90
32201;DHT22;18701;45.588;5.288;2023-06-04T11:49:22;25.10;99.90
32201;DHT22;18701;45.588;5.288;2023-06-04T11:51:49;25.10;99.90
32201;DHT22;18701;45.588;5.288;2023-06-04T11:54:16;25.60;99.90
32201;DHT22;18701;45.588;5.288;2023-06-04T11:56:43;25.90;99.90
32201;DHT22;18701;45.588;5.288;2023-06-04T11:59:13;26.00;99.90
32201;DHT22;18701;45.588;5.288;2023-06-04T12:01:46;26.40;99.90
32201;DHT22;18701;45.588;5.288;2023-06-04T12:04:19;26.20;99.90
32201;DHT22;18701;45.588;5.288;2023-06-04T12:09:25;26.20;99.90
32201;DHT22;18701;45.588;5.288;2023-06-04T12:12:01;26.50;99.90
32201;DHT22;18701;45.588;5.288;2023-06-04T12:14:29;26.90;99.90
32201;DHT22;18701;45.588;5.288;2023-06-04T12:17:15;27.30;99.90
32201;DHT22;18701;45.588;5.288;2023-06-04T12:19:48;26.90;99.90
32201;DHT22;18701;45.588;5.288;2023-06-04T12:22:14;27.00;99.90
32201;DHT22;18701;45.588;5.288;2023-06-04T12:24:48;27.30;99.90
32201;DHT22;18701;45.588;5.288;2023-06-04T12:27:14;27.50;99.90
32201;DHT22;18701;45.588;5.288;2023-06-04T12:29:40;27.00;99.90
32201;DHT22;18701;45.588;5.288;2023-06-04T12:32:08;27.10;99.90
32201;DHT22;18701;45.588;5.288;2023-06-04T12:34:37;27.40;99.90
32201;DHT22;18701;45.588;5.288;2023-06-04T12:37:02;27.80;99.90
32201;DHT22;18701;45.588;5.288;2023-06-04T12:39:29;27.70;99.90
32201;DHT22;18701;45.588;5.288;2023-06-04T12:41:55;27.40;99.90
32201;DHT22;18701;45.588;5.288;2023-06-04T12:44:21;27.60;99.90
32201;DHT22;18701;45.588;5.288;2023-06-04T12:46:47;27.70;99.90
32201;DHT22;18701;45.588;5.288;2023-06-04T12:49:13;27.70;99.90
32201;DHT22;18701;45.588;5.288;2023-06-04T12:51:38;27.40;99.90
32201;DHT22;18701;45.588;5.288;2023-06-04T12:54:04;27.60;99.90
32201;DHT22;18701;45.588;5.288;2023-06-04T12:56:30;27.70;99.90
32201;DHT22;18701;45.588;5.288;2023-06-04T12:58:56;27.60;99.90
32201;DHT22;18701;45.588;5.288;2023-06-04T13:01:21;27.60;99.90
32201;DHT22;18701;45.588;5.288;2023-06-04T13:03:47;27.90;99.90
32201;DHT22;18701;45.588;5.288;2023-06-04T13:06:13;28.40;99.90
32201;DHT22;18701;45.588;5.288;2023-06-04T13:08:38;28.40;99.90
32201;DHT22;18701;45.588;5.288;2023-06-04T13:11:04;28.80;99.90
32201;DHT22;18701;45.588;5.288;2023-06-04T13:13:31;29.00;99.90
32201;DHT22;18701;45.588;5.288;2023-06-04T13:15:56;28.60;99.90
32201;DHT22;18701;45.588;5.288;2023-06-04T13:18:22;28.40;99.90
32201;DHT22;18701;45.588;5.288;2023-06-04T13:20:48;28.20;99.90
32201;DHT22;18701;45.588;5.288;2023-06-04T13:23:16;28.60;99.90
32201;DHT22;18701;45.588;5.288;2023-06-04T13:25:45;29.00;99.90
32201;DHT22;18701;45.588;5.288;2023-06-04T13:28:11;28.70;99.70
32201;DHT22;18701;45.588;5.288;2023-06-04T13:30:37;28.90;99.90
32201;DHT22;18701;45.588;5.288;2023-06-04T13:33:03;28.90;98.30
32201;DHT22;18701;45.588;5.288;2023-06-04T13:35:29;28.60;98.70
32201;DHT22;18701;45.588;5.288;2023-06-04T13:37:55;28.30;98.10
32201;DHT22;18701;45.588;5.288;2023-06-04T13:40:20;28.60;99.60
32201;DHT22;18701;45.588;5.288;2023-06-04T13:42:46;28.50;99.10
32201;DHT22;18701;45.588;5.288;2023-06-04T13:45:12;28.80;99.10
32201;DHT22;18701;45.588;5.288;2023-06-04T13:47:37;28.90;98.90
32201;DHT22;18701;45.588;5.288;2023-06-04T13:50:03;28.90;99.30
32201;DHT22;18701;45.588;5.288;2023-06-04T13:52:30;28.70;98.60
32201;DHT22;18701;45.588;5.288;2023-06-04T13:54:56;28.80;99.50
32201;DHT22;18701;45.588;5.288;2023-06-04T13:57:24;28.90;98.70
32201;DHT22;18701;45.588;5.288;2023-06-04T13:59:50;28.20;98.40
32201;DHT22;18701;45.588;5.288;2023-06-04T14:02:16;27.90;98.60
32201;DHT22;18701;45.588;5.288;2023-06-04T14:04:42;28.20;98.70
32201;DHT22;18701;45.588;5.288;2023-06-04T14:07:10;28.80;98.90
32201;DHT22;18701;45.588;5.288;2023-06-04T14:09:36;29.00;97.90
32201;DHT22;18701;45.588;5.288;2023-06-04T14:12:02;28.90;97.60
32201;DHT22;18701;45.588;5.288;2023-06-04T14:14:28;28.80;96.60
32201;DHT22;18701;45.588;5.288;2023-06-04T14:17:02;29.00;96.40
32201;DHT22;18701;45.588;5.288;2023-06-04T14:19:27;29.40;96.70
32201;DHT22;18701;45.588;5.288;2023-06-04T14:21:53;29.50;95.90
32201;DHT22;18701;45.588;5.288;2023-06-04T14:24:19;29.30;96.00
32201;DHT22;18701;45.588;5.288;2023-06-04T14:26:44;29.10;94.70
32201;DHT22;18701;45.588;5.288;2023-06-04T14:29:11;29.40;95.20
32201;DHT22;18701;45.588;5.288;2023-06-04T14:31:36;29.30;94.40
32201;DHT22;18701;45.588;5.288;2023-06-04T14:34:02;29.10;95.10
32201;DHT22;18701;45.588;5.288;2023-06-04T14:36:28;28.90;94.00
32201;DHT22;18701;45.588;5.288;2023-06-04T14:38:54;28.80;95.10
32201;DHT22;18701;45.588;5.288;2023-06-04T14:41:19;29.00;95.10
32201;DHT22;18701;45.588;5.288;2023-06-04T14:43:45;28.90;94.70
32201;DHT22;18701;45.588;5.288;2023-06-04T14:46:10;28.80;94.60
32201;DHT22;18701;45.588;5.288;2023-06-04T14:48:36;28.90;94.60
32201;DHT22;18701;45.588;5.288;2023-06-04T14:51:02;29.30;94.70
32201;DHT22;18701;45.588;5.288;2023-06-04T14:53:27;29.40;94.10
32201;DHT22;18701;45.588;5.288;2023-06-04T14:55:53;29.70;94.50
32201;DHT22;18701;45.588;5.288;2023-06-04T14:58:19;29.50;96.00
32201;DHT22;18701;45.588;5.288;2023-06-04T15:00:45;29.30;94.80
32201;DHT22;18701;45.588;5.288;2023-06-04T15:03:11;29.40;94.00
32201;DHT22;18701;45.588;5.288;2023-06-04T15:05:37;29.50;93.90
32201;DHT22;18701;45.588;5.288;2023-06-04T15:08:03;29.30;94.30
32201;DHT22;18701;45.588;5.288;2023-06-04T15:10:30;29.00;94.40
32201;DHT22;18701;45.588;5.288;2023-06-04T15:12:56;28.60;95.30
32201;DHT22;18701;45.588;5.288;2023-06-04T15:15:22;28.50;95.40
32201;DHT22;18701;45.588;5.288;2023-06-04T15:17:48;28.80;96.00
32201;DHT22;18701;45.588;5.288;2023-06-04T15:20:14;29.00;96.00
32201;DHT22;18701;45.588;5.288;2023-06-04T15:22:40;29.20;95.60
32201;DHT22;18701;45.588;5.288;2023-06-04T15:25:06;29.10;94.60
32201;DHT22;18701;45.588;5.288;2023-06-04T15:27:32;28.30;95.80
32201;DHT22;18701;45.588;5.288;2023-06-04T15:29:58;28.30;95.40
32201;DHT22;18701;45.588;5.288;2023-06-04T15:32:23;28.70;95.50
32201;DHT22;18701;45.588;5.288;2023-06-04T15:34:49;28.80;95.10